createdAt,value
2023-01-06T05:38:34.356Z,28.35
2023-01-06T05:50:47.724Z,42.80
2023-01-06T05:53:16.765Z,36.63
2023-01-06T05:55:51.534Z,31.83
2023-01-06T05:58:41.861Z,29.63
2023-01-06T06:14:26.777Z,19.25
2023-01-06T06:17:11.754Z,22.80
2023-01-06T07:02:22.865Z,53.78
2023-01-06T07:04:52.329Z,54.58
2023-01-06T07:07:19.236Z,49.83
2023-01-06T07:09:46.246Z,49.28
2023-01-06T07:12:13.366Z,56.90
2023-01-06T07:14:40.937Z,56.33
2023-01-06T07:17:09.059Z,54.63
2023-01-06T07:19:38.500Z,60.22
2023-01-06T07:22:05.383Z,64.20
2023-01-06T07:24:32.322Z,60.53
2023-01-06T07:26:59.177Z,55.75
2023-01-06T07:29:25.967Z,58.30
2023-01-06T07:31:55.306Z,66.20
2023-01-06T07:34:22.334Z,59.85
2023-01-06T07:36:49.357Z,64.35
2023-01-06T07:39:16.874Z,61.38
2023-01-06T07:41:43.931Z,60.40
2023-01-06T07:44:15.256Z,58.97
2023-01-06T07:46:44.982Z,65.53
2023-01-06T07:49:12.892Z,59.03
2023-01-06T07:51:39.841Z,58.55
2023-01-06T07:54:07.294Z,53.95
2023-01-06T07:56:36.798Z,47.88
2023-01-06T07:59:03.657Z,41.38
2023-01-06T08:01:30.766Z,42.33
2023-01-06T08:03:57.636Z,46.88
2023-01-06T08:06:34.039Z,44.88
2023-01-06T08:09:36.102Z,43.92
2023-01-06T08:12:03.290Z,37.28
2023-01-06T08:14:31.322Z,43.35
2023-01-06T08:17:00.753Z,47.55
2023-01-06T08:19:27.741Z,56.03
2023-01-06T08:21:59.648Z,52.25
2023-01-06T08:24:26.632Z,52.30
2023-01-06T08:26:54.818Z,52.85
2023-01-06T08:29:21.662Z,45.55
2023-01-06T08:31:51.564Z,44.83
2023-01-06T08:34:24.349Z,50.90
2023-01-06T08:36:54.035Z,52.50
2023-01-06T08:39:24.928Z,54.28
2023-01-06T08:41:54.326Z,47.20
2023-01-06T08:45:02.047Z,39.30
2023-01-06T08:48:00.446Z,45.13
2023-01-06T08:50:28.910Z,48.70
2023-01-06T08:53:08.155Z,51.13
2023-01-06T08:55:38.693Z,54.05
2023-01-06T08:58:05.913Z,53.92
2023-01-06T09:00:45.810Z,61.92
2023-01-06T09:04:05.702Z,42.75
2023-01-06T09:12:53.206Z,46.45
2023-01-06T09:16:09.156Z,55.38
2023-01-06T09:21:35.611Z,49.50
2023-01-06T09:24:21.748Z,42.60
2023-01-06T09:30:34.284Z,20.13
2023-01-06T09:33:46.164Z,32.28
2023-01-06T09:43:57.356Z,38.00
2023-01-06T09:46:21.354Z,37.05
2023-01-06T09:49:14.180Z,36.45
2023-01-06T09:56:22.085Z,19.65
2023-01-06T09:59:06.299Z,7.75
2023-01-06T10:01:38.379Z,6.93
2023-01-06T10:04:05.568Z,7.82
2023-01-06T10:07:09.811Z,3.47
2023-01-06T10:09:44.223Z,4.60
2023-01-06T10:12:35.801Z,4.80
2023-01-06T10:15:23.907Z,5.28
2023-01-06T10:18:26.044Z,4.53
2023-01-06T10:20:58.364Z,8.43
2023-01-06T10:23:36.665Z,2.28
2023-01-06T10:26:31.899Z,2.60
2023-01-06T10:29:13.364Z,5.20
2023-01-06T10:31:44.088Z,7.60
2023-01-06T10:34:30.562Z,4.47
2023-01-06T10:37:05.419Z,4.97
2023-01-06T10:39:37.155Z,1.67
2023-01-06T10:43:18.745Z,3.33
2023-01-06T10:45:48.143Z,5.18
2023-01-06T10:48:21.076Z,4.68
2023-01-06T10:50:48.140Z,5.55
2023-01-06T10:56:08.114Z,2.47
2023-01-06T10:58:35.983Z,2.30
2023-01-06T11:01:17.091Z,2.60
2023-01-06T11:03:45.943Z,6.20
2023-01-06T11:06:27.820Z,1.70
2023-01-06T11:08:56.576Z,2.60
2023-01-06T11:11:28.965Z,1.30
2023-01-06T11:13:59.929Z,4.00
2023-01-06T11:16:33.822Z,1.75
2023-01-06T11:19:06.979Z,1.95
2023-01-06T11:21:49.166Z,1.42
2023-01-06T11:24:20.065Z,1.52
2023-01-06T11:26:58.429Z,3.33
2023-01-06T11:29:37.425Z,1.77
2023-01-06T11:32:15.828Z,2.72
2023-01-06T11:35:09.792Z,4.68
2023-01-06T11:37:40.783Z,3.53
2023-01-06T11:40:27.368Z,3.17
2023-01-06T11:42:58.511Z,4.40
2023-01-06T11:45:53.784Z,3.50
2023-01-06T11:48:47.859Z,4.53
2023-01-06T11:51:46.547Z,3.42
2023-01-06T11:54:35.256Z,3.97
2023-01-06T11:57:23.454Z,3.03
2023-01-06T12:00:09.572Z,3.10
2023-01-06T12:03:03.680Z,3.25
2023-01-06T12:05:39.470Z,3.10
2023-01-06T12:08:19.136Z,2.28
2023-01-06T12:10:51.579Z,3.33
2023-01-06T12:13:18.666Z,2.15
2023-01-06T12:15:51.974Z,3.05
2023-01-06T12:18:27.465Z,2.53
2023-01-06T12:20:57.041Z,3.78
2023-01-06T12:23:36.246Z,2.03
2023-01-06T12:26:31.509Z,1.52
2023-01-06T12:29:07.545Z,1.92
2023-01-06T12:35:20.476Z,6.40
2023-01-06T12:38:16.684Z,8.18
2023-01-06T12:40:55.542Z,4.57
2023-01-06T12:43:32.432Z,3.55
2023-01-06T12:46:26.898Z,3.90
2023-01-06T12:48:59.996Z,1.77
2023-01-06T12:52:02.640Z,6.32
2023-01-06T12:54:32.525Z,5.35
2023-01-06T12:57:21.845Z,2.17
2023-01-06T13:00:04.072Z,5.18
2023-01-06T13:02:59.509Z,4.97
2023-01-06T13:05:29.223Z,2.05
2023-01-06T13:08:43.769Z,2.25
2023-01-06T13:11:44.505Z,4.97
2023-01-06T13:15:00.021Z,3.75
2023-01-06T13:18:00.133Z,2.85
2023-01-06T13:20:43.426Z,1.10
2023-01-06T13:23:25.728Z,1.58
2023-01-06T13:26:24.274Z,11.77
2023-01-06T13:29:15.304Z,3.65
2023-01-06T13:32:24.913Z,12.60
2023-01-06T13:35:16.782Z,14.68
2023-01-06T13:40:55.257Z,17.42
2023-01-06T13:43:32.977Z,25.25
2023-01-06T13:46:06.760Z,8.35
2023-01-06T13:48:46.421Z,4.22
2023-01-06T13:51:16.220Z,6.07
2023-01-06T13:53:56.667Z,3.60
2023-01-06T13:56:34.444Z,2.63
2023-01-06T13:59:30.508Z,3.65
2023-01-06T14:02:00.943Z,1.27
2023-01-06T14:04:36.982Z,3.58
2023-01-06T14:07:07.367Z,3.35
2023-01-06T14:09:43.714Z,1.65
2023-01-06T14:12:27.951Z,2.00
2023-01-06T14:15:00.156Z,2.97
2023-01-06T14:17:59.029Z,5.78
2023-01-06T14:20:51.589Z,2.45
2023-01-06T14:23:38.565Z,4.90
2023-01-06T14:31:56.401Z,2.28
2023-01-06T14:45:29.353Z,11.38
2023-01-06T14:48:52.871Z,13.27
2023-01-06T15:16:41.705Z,2.53
2023-01-06T15:19:16.338Z,3.47
2023-01-06T15:21:46.112Z,4.88
2023-01-06T15:24:35.667Z,5.20
2023-01-06T15:27:20.204Z,3.55
2023-01-06T15:30:09.694Z,2.58
2023-01-06T15:32:38.386Z,3.97
2023-01-06T15:35:05.888Z,9.20
2023-01-06T15:37:35.256Z,6.18
2023-01-06T15:40:04.751Z,5.53
2023-01-06T15:42:33.324Z,6.90
2023-01-06T15:45:07.792Z,11.80
2023-01-06T15:47:59.357Z,5.30
2023-01-06T15:50:33.295Z,5.10
2023-01-06T15:53:06.304Z,9.82
2023-01-06T15:55:45.883Z,10.63
2023-01-06T16:03:55.153Z,18.73
2023-01-06T16:23:30.434Z,39.65
2023-01-06T16:26:40.259Z,29.67
2023-01-06T16:29:24.225Z,17.90
2023-01-06T16:31:51.310Z,19.17
2023-01-06T16:34:36.265Z,29.15
2023-01-06T16:37:06.326Z,24.15
2023-01-06T16:39:33.668Z,15.73
2023-01-06T16:42:55.473Z,22.35
2023-01-06T16:45:28.453Z,23.38
2023-01-06T16:47:56.415Z,27.45
2023-01-06T16:50:39.279Z,33.38
2023-01-06T16:53:12.993Z,22.70
2023-01-06T16:55:41.852Z,25.30
2023-01-06T16:58:23.754Z,30.60
2023-01-06T17:00:52.938Z,38.08
2023-01-06T17:03:30.744Z,41.13
2023-01-06T17:06:00.129Z,34.22
2023-01-06T17:08:35.184Z,46.97
2023-01-06T17:11:08.233Z,49.00
2023-01-06T17:13:35.383Z,49.72
2023-01-06T17:16:12.105Z,42.35
2023-01-06T17:18:50.066Z,44.15
2023-01-06T17:21:20.022Z,30.42
2023-01-06T17:24:13.975Z,34.00
2023-01-06T17:26:44.715Z,34.75
2023-01-06T17:29:19.814Z,34.40
2023-01-06T17:31:50.362Z,29.30
2023-01-06T17:34:24.862Z,18.83
2023-01-06T17:36:57.521Z,16.50
2023-01-06T17:39:27.610Z,14.95
2023-01-06T17:42:17.681Z,13.93
2023-01-06T17:44:46.680Z,7.78
2023-01-06T17:47:16.525Z,9.20
2023-01-06T17:49:58.013Z,7.45
2023-01-06T17:52:35.860Z,9.02
2023-01-06T17:55:44.619Z,11.70
2023-01-06T17:58:16.312Z,13.43
2023-01-06T18:00:44.502Z,9.48
2023-01-06T18:03:16.971Z,15.18
2023-01-06T18:05:49.363Z,16.35
2023-01-06T18:08:17.982Z,14.20
2023-01-06T18:10:50.666Z,15.32
2023-01-06T18:13:22.083Z,13.98
2023-01-06T18:15:53.482Z,13.80
2023-01-06T18:18:27.883Z,11.18
2023-01-06T18:21:10.772Z,14.80
2023-01-06T18:23:40.082Z,13.73
2023-01-06T18:26:26.810Z,17.77
2023-01-06T18:28:57.608Z,13.32
2023-01-06T18:31:24.539Z,16.08
2023-01-06T18:33:51.679Z,17.42
2023-01-06T18:36:18.527Z,20.25
2023-01-06T18:38:45.536Z,15.38
2023-01-06T18:41:13.507Z,8.50
2023-01-06T18:43:42.256Z,18.40
2023-01-06T18:46:21.980Z,16.02
2023-01-06T18:48:48.897Z,10.95
2023-01-06T18:51:23.638Z,10.43
2023-01-06T18:53:52.801Z,9.80
2023-01-06T18:56:25.164Z,8.13
2023-01-06T18:58:57.610Z,12.65
2023-01-06T19:01:29.298Z,6.95
2023-01-06T19:04:10.115Z,11.10
2023-01-06T19:06:55.836Z,11.48
2023-01-06T19:09:31.517Z,10.13
2023-01-06T19:12:30.501Z,16.27
2023-01-06T19:15:13.127Z,9.43
2023-01-06T19:17:41.744Z,6.95
2023-01-06T19:20:19.089Z,6.22
2023-01-06T19:22:46.540Z,4.78
2023-01-06T19:25:25.141Z,5.38
2023-01-06T19:27:55.189Z,4.03
2023-01-06T19:30:48.619Z,5.43
2023-01-06T19:33:38.401Z,9.93
2023-01-06T19:36:05.226Z,11.10
2023-01-06T19:38:41.195Z,5.43
2023-01-06T19:41:15.824Z,8.70
2023-01-06T19:43:43.139Z,8.90
2023-01-06T19:46:30.035Z,8.38
2023-01-06T19:48:59.642Z,3.63
2023-01-06T19:51:34.884Z,4.50
2023-01-06T19:54:24.965Z,6.38
2023-01-06T19:56:53.233Z,6.72
2023-01-06T19:59:26.081Z,4.45
2023-01-06T20:01:59.901Z,5.40
2023-01-06T20:04:27.827Z,6.55
2023-01-06T20:06:55.030Z,14.13
2023-01-06T20:09:22.161Z,9.45
2023-01-06T20:11:50.937Z,7.03
2023-01-06T20:14:23.963Z,5.63
2023-01-06T20:19:34.599Z,6.97
2023-01-06T20:22:06.930Z,9.50
2023-01-06T20:24:34.011Z,5.72
2023-01-06T20:27:00.963Z,6.28
2023-01-06T20:29:27.892Z,6.82
2023-01-06T20:31:55.096Z,6.47
2023-01-06T20:34:24.655Z,12.88
2023-01-06T20:36:51.512Z,11.13
2023-01-06T20:39:18.600Z,11.63
2023-01-06T20:41:51.547Z,7.22
2023-01-06T20:44:21.600Z,6.53
2023-01-06T20:46:58.362Z,4.55
2023-01-06T20:49:26.514Z,8.73
2023-01-06T20:51:53.400Z,7.53
2023-01-06T20:54:20.377Z,4.70
2023-01-06T20:56:47.573Z,7.32
2023-01-06T20:59:14.659Z,3.42
2023-01-06T21:01:41.667Z,6.18
2023-01-06T21:04:13.239Z,3.05
2023-01-06T21:06:45.555Z,3.40
2023-01-06T21:09:13.058Z,5.05
2023-01-06T21:11:39.963Z,3.95
2023-01-06T21:14:18.869Z,3.72
2023-01-06T21:16:49.236Z,5.28
2023-01-06T21:19:19.895Z,5.18
2023-01-06T21:21:47.983Z,3.80
2023-01-06T21:24:17.575Z,7.18
2023-01-06T21:26:44.737Z,5.00
2023-01-06T21:29:11.587Z,3.45
2023-01-06T21:31:40.253Z,4.93
2023-01-06T21:34:08.712Z,4.15
2023-01-06T21:36:35.741Z,4.18
2023-01-06T21:39:03.115Z,3.53
2023-01-06T21:41:48.750Z,3.72
2023-01-06T21:44:18.281Z,6.93
2023-01-06T21:46:57.777Z,4.03
2023-01-06T21:49:39.924Z,4.43
2023-01-06T21:52:16.032Z,5.55
2023-01-06T21:54:44.509Z,3.47
2023-01-06T21:57:12.247Z,4.90
2023-01-06T21:59:58.174Z,4.35
2023-01-06T22:02:29.942Z,6.90
2023-01-06T22:04:59.352Z,11.02
2023-01-06T22:07:29.110Z,17.65
2023-01-06T22:09:57.665Z,18.77
2023-01-06T22:12:32.084Z,14.32
2023-01-06T22:15:06.577Z,18.92
2023-01-06T22:17:40.058Z,16.52
2023-01-06T22:20:24.417Z,17.52
2023-01-06T22:22:58.663Z,16.80
2023-01-06T22:28:21.169Z,12.02
2023-01-06T22:30:48.301Z,17.98
2023-01-06T22:33:16.255Z,12.00
2023-01-06T22:35:43.551Z,13.10
2023-01-06T22:38:10.551Z,11.57
2023-01-06T22:40:37.448Z,13.02
2023-01-06T22:43:05.535Z,12.02
2023-01-06T22:45:34.625Z,8.98
2023-01-06T22:48:01.776Z,10.02
2023-01-06T22:53:46.065Z,6.78
2023-01-06T22:56:13.731Z,6.00
2023-01-06T22:59:04.842Z,5.63
2023-01-06T23:01:32.787Z,5.70
2023-01-06T23:04:01.077Z,5.30
2023-01-06T23:06:30.739Z,4.22
2023-01-06T23:09:00.443Z,5.82
2023-01-06T23:11:28.708Z,4.00
2023-01-06T23:13:58.074Z,5.28
2023-01-06T23:16:30.367Z,6.13
2023-01-06T23:18:57.522Z,6.40
2023-01-06T23:21:26.337Z,8.98
2023-01-06T23:23:54.164Z,16.20
2023-01-06T23:26:34.358Z,28.73
2023-01-06T23:29:01.485Z,23.10
2023-01-06T23:31:33.841Z,23.33
2023-01-06T23:34:08.863Z,20.73
2023-01-06T23:36:37.187Z,18.45
2023-01-06T23:39:06.307Z,14.63
2023-01-06T23:41:35.235Z,10.60
2023-01-06T23:44:04.177Z,18.13
2023-01-06T23:46:35.469Z,20.23
2023-01-06T23:49:03.211Z,25.23
2023-01-06T23:51:33.060Z,26.88
2023-01-06T23:54:04.550Z,25.63
2023-01-06T23:56:33.992Z,22.13
2023-01-06T23:59:02.164Z,19.60
